• Join FlightAware (Why Join?)
  • Login
  • US Flag 
05:28AM EST


 

Airport Tracker/Info


-or-


 

Live Flight TrackerFlight Track Log ✈ CLH313 ✈ 15-Jul-2014 ✈ LIRQ / FLR - EDDF / FRA

Flight Track Log - Related Links

Times and Time Zones

All times are in EDT time to prevent confusion due to time zone crossing. See the CLH313 flight status page for this flight to view local times or setup timezone preferences in your user account.

Time Position Orientation Groundspeed Altitude Reporting Facility
EDT Latitude Longitude Course Direction KTS MPH feet Rate Location/Type
09:08AM 44.3609 10.9936 345° North  Level Estimated
09:09AM 44.4527 10.9580 345° North  Level Estimated
09:10AM 44.5445 10.9223 344° North  Level Estimated
09:11AM 44.6362 10.8864 344° North  Level Estimated
09:12AM 44.7280 10.8504 344° North  Level Estimated
09:13AM 44.8197 10.8144 344° North  Level Estimated
09:14AM 44.9114 10.7781 344° North  Level Estimated
09:15AM 45.0032 10.7418 344° North  Level Estimated
09:16AM 45.0949 10.7054 344° North  Level Estimated
09:17AM 45.1866 10.6689 344° North  Level Estimated
09:18AM 45.2783 10.6322 344° North  Level Estimated
09:19AM 45.3699 10.5954 344° North  Level Estimated
09:20AM 45.4616 10.5585 344° North  Level Estimated
09:21AM 45.5532 10.5215 344° North  Level Estimated
09:22AM 45.6449 10.4843 344° North  Level Estimated
09:23AM 45.7365 10.4471 344° North  Level Estimated
09:24AM 45.8281 10.4097 344° North  Level Estimated
09:25AM 45.9197 10.3722 344° North  Level Estimated
09:26AM 46.0113 10.3345 344° North  Level Estimated
09:27AM 46.1029 10.2968 344° North  Level Estimated
09:28AM 46.1944 10.2589 344° North  Level Estimated
09:29AM 46.2860 10.2209 344° North  Level Estimated
09:30AM 46.3775 10.1827 344° North  Level Estimated
09:31AM 46.4691 10.1445 344° North  Level Estimated
09:32AM 46.5606 10.1060 344° North  Level Estimated
09:33AM 46.6521 10.0675 344° North  Level Estimated
09:34AM 46.7435 10.0289 344° North  Level Estimated
09:35AM 46.8350 9.9901 344° North  Level Estimated
09:36AM 46.9265 9.9511 344° North  Level Estimated
09:37AM 47.0179 9.9121 344° North  Level Estimated
09:38AM 47.1094 9.8729 344° North  Level Estimated
09:39AM 47.2008 9.8336 344° North  Level Estimated
09:40AM 47.2922 9.7941 344° North  Level Estimated
09:41AM 47.3836 9.7545 344° North  Level Estimated
09:42AM 47.4749 9.7148 344° North  Level Estimated
09:43AM 47.5663 9.6749 344° North  Level Estimated
09:44AM 47.6577 9.6349 344° North  Level Estimated
09:45AM 47.7490 9.5948 344° North  Level Estimated
09:46AM 47.8403 9.5545 344° North  Level Estimated
09:47AM 47.9316 9.5140 343° North  Level Estimated
09:48AM 48.0229 9.4734 343° North  Level Estimated
09:49AM 48.1142 9.4327 343° North  Level Estimated
09:50AM 48.2055 9.3919 343° North  Level Estimated
09:51AM 48.2967 9.3509 343° North  Level Estimated
09:52AM 48.3880 9.3097 343° North  Level Estimated
09:53AM 48.4792 9.2684 343° North  Level Estimated
09:54AM 48.5704 9.2269 343° North  Level Estimated
09:55AM 48.6616 9.1853 343° North  Level Estimated
09:56AM 48.7528 9.1436 343° North  Level Estimated
09:57AM 48.8439 9.1017 343° North  Level Estimated
09:58AM 48.9351 9.0596 343° North  Level Estimated
09:59AM 49.0262 9.0174 343° North  Level Estimated
10:00AM 49.1173 8.9750 343° North  Level Estimated
10:01AM 49.2084 8.9325 343° North  Level Estimated
10:02AM 49.2995 8.8898 343° North  Level Estimated
10:03AM 49.3906 8.8469 343° North  Level Estimated
10:04AM 49.4816 8.8040 343° North  Level Estimated
10:05AM 49.5727 8.7608 343° North  Level Estimated
10:06AM 49.6637 8.7175 343° North  Level Estimated
10:07AM 49.7547 8.6740 343° North  Level Estimated
10:08AM 49.8457 8.6303 343° North  Level Estimated
10:09AM 49.9367 8.5865 343° North  Level Estimated
10:10AM 50.0264 8.5431 343° North  Level Estimated
10:11AM 50.0264 8.5431 North  Level Estimated
10:12AM 50.0264 8.5431 North  Level Estimated
10:13AM 50.0264 8.5431 North  Level Estimated
10:14AM 50.0264 8.5431 North  Level Estimated
10:15AM 50.0264 8.5431 North  Level Estimated
10:16AM 50.0264 8.5431 North  Level Estimated
10:17AM 50.0264 8.5431 North  Level Estimated
10:18AM 50.0264 8.5431 North  Level Estimated
10:19AM 50.0264 8.5431 North  Level Estimated
10:20AM 50.0264 8.5431 North  Level Estimated
10:21AM 50.0264 8.5431 North  Level Estimated
10:22AM 50.0264 8.5431 North  Level Estimated
10:23AM 50.0264 8.5431 North  Level Estimated
10:24AM 50.0264 8.5431 North  Level Estimated
10:25AM 50.0264 8.5431 North  Level Estimated
10:26AM 50.0264 8.5431 North  Level Estimated